Henderson, Nevada
Current Conditions -  °F | °C
As of 5:15 PM on Friday 31 Oct 2014 (Local Time) from KBVU Reporting Station
Clear Clear  
Wind Chill: 27°   Ceiling: Unl
Heat Index: 27°   Visibility: 10mi
Dew Point: -2°   Wind: 15mph
Humidity: 15%   Direction: 180°S
Pressure: 29.77"   Gusts: NA
Location:  36.03°N, 114.98°W
Report Text: KBVU 010015Z AUTO 18013KT 10SM CLR 27/M02 A2977 RMK AO2
Loading
Personal Weather Stations






























Interactive Weather Map
Tropical Storm Tracking
New forecast layout! Learn more

10-Day Weather Forecast

Advertisements
Track Severe Weather on mobile